Time;durP1;ratioP1;P1;durP2;ratioP2;P2;SDS_P1;SDS_P2;PMS_P1;PMS_P2;Temp;Humidity;BMP_temperature;BMP_pressure;BME280_temperature;BME280_humidity;BME280_pressure;Samples;Min_cycle;Max_cycle;Signal;HPM_P1;HPM_P2
2023/05/25 00:00:15;;;;;;;10.82;9.73;;;17.50;99.90;;;;;;5052761;28;20217;-88
2023/05/25 00:02:43;;;;;;;8.50;7.68;;;17.50;99.90;;;;;;5052668;28;20214;-92
2023/05/25 00:05:10;;;;;;;10.48;8.90;;;17.40;99.90;;;;;;5052655;28;20235;-87
2023/05/25 00:07:37;;;;;;;11.60;9.43;;;17.40;99.90;;;;;;5052768;28;20233;-88
2023/05/25 00:10:05;;;;;;;9.50;8.48;;;17.30;99.90;;;;;;5051671;28;20211;-78
2023/05/25 00:12:35;;;;;;;10.55;9.45;;;17.30;99.90;;;;;;5052162;28;20742;-80
2023/05/25 00:15:02;;;;;;;10.73;9.32;;;17.30;99.90;;;;;;5051964;28;20742;-79
2023/05/25 00:17:30;;;;;;;9.55;8.27;;;17.30;99.90;;;;;;5052101;28;20238;-81
2023/05/25 00:20:06;;;;;;;10.68;8.98;;;17.20;99.90;;;;;;5051246;28;20214;-83
2023/05/25 00:22:33;;;;;;;10.27;8.40;;;17.20;99.90;;;;;;5052000;28;20218;-82
2023/05/25 00:25:00;;;;;;;10.00;9.00;;;17.20;99.90;;;;;;5051413;28;20270;-83
2023/05/25 00:27:27;;;;;;;9.85;8.80;;;17.10;99.90;;;;;;5051721;28;20235;-79
2023/05/25 00:29:55;;;;;;;12.90;9.80;;;17.10;99.90;;;;;;5051817;28;20256;-83
2023/05/25 00:32:22;;;;;;;9.63;8.73;;;17.00;99.90;;;;;;5052028;28;20293;-87
2023/05/25 00:34:49;;;;;;;11.60;8.75;;;16.90;99.90;;;;;;5051834;28;20246;-84
2023/05/25 00:37:16;;;;;;;10.70;8.55;;;16.90;99.90;;;;;;5051867;28;20217;-80
2023/05/25 00:39:43;;;;;;;9.95;7.90;;;16.90;99.90;;;;;;5051371;28;20214;-82
2023/05/25 00:42:10;;;;;;;11.70;7.78;;;16.90;99.90;;;;;;5051796;28;20242;-85
2023/05/25 00:44:37;;;;;;;10.18;8.90;;;17.00;99.90;;;;;;5051642;28;20262;-82
2023/05/25 00:47:06;;;;;;;9.25;7.88;;;17.00;99.90;;;;;;5051752;28;20238;-81
2023/05/25 00:49:35;;;;;;;11.45;8.82;;;17.10;99.90;;;;;;5051310;28;20238;-83
2023/05/25 00:52:02;;;;;;;9.52;8.20;;;17.00;99.90;;;;;;5051626;28;20293;-79
2023/05/25 00:54:32;;;;;;;9.50;8.15;;;17.00;99.90;;;;;;5051025;28;20242;-79
2023/05/25 00:57:02;;;;;;;10.15;8.70;;;17.00;99.90;;;;;;5051350;28;20211;-82
2023/05/25 00:59:35;;;;;;;10.82;8.38;;;17.00;99.90;;;;;;5051483;28;20280;-80
2023/05/25 01:02:07;;;;;;;10.23;9.07;;;17.00;99.90;;;;;;5051441;28;20214;-83
2023/05/25 01:04:36;;;;;;;9.50;8.43;;;16.90;99.90;;;;;;5050768;28;20230;-75
2023/05/25 01:07:05;;;;;;;9.80;8.80;;;16.90;99.90;;;;;;5038498;28;20235;-68
2023/05/25 01:09:34;;;;;;;10.27;8.00;;;16.90;99.90;;;;;;5035258;28;20329;-82
2023/05/25 01:12:03;;;;;;;9.40;8.48;;;16.90;99.90;;;;;;5043433;28;20210;-85
2023/05/25 01:14:31;;;;;;;10.25;8.98;;;16.80;99.90;;;;;;5040896;28;20230;-86
2023/05/25 01:16:58;;;;;;;10.48;8.40;;;16.70;99.90;;;;;;5047845;28;20207;-90
2023/05/25 01:19:27;;;;;;;11.43;8.55;;;16.70;99.90;;;;;;5051392;28;20241;-88
2023/05/25 01:22:01;;;;;;;13.38;9.10;;;16.60;99.90;;;;;;5049904;28;20211;-82
2023/05/25 01:24:33;;;;;;;9.23;8.15;;;16.50;99.90;;;;;;5039781;28;20265;-82
2023/05/25 01:27:06;;;;;;;9.07;7.82;;;16.50;99.90;;;;;;5050585;28;20249;-82
2023/05/25 01:29:34;;;;;;;10.95;8.63;;;16.50;99.90;;;;;;5050799;28;20241;-70
2023/05/25 01:32:03;;;;;;;9.73;7.53;;;16.40;99.90;;;;;;5050753;28;20207;-81
2023/05/25 01:34:31;;;;;;;8.40;7.28;;;16.30;99.90;;;;;;5051096;28;20199;-79
2023/05/25 01:36:59;;;;;;;11.07;8.45;;;16.30;99.90;;;;;;5050752;28;20242;-82
2023/05/25 01:39:26;;;;;;;8.90;7.95;;;16.30;99.90;;;;;;5045373;28;20238;-79
2023/05/25 01:41:53;;;;;;;11.20;8.30;;;16.20;99.90;;;;;;5041731;28;20247;-84
2023/05/25 01:44:20;;;;;;;10.70;7.80;;;16.30;99.90;;;;;;5050375;28;20238;-80
2023/05/25 01:46:51;;;;;;;9.07;8.18;;;16.20;99.90;;;;;;5050185;28;20227;-81
2023/05/25 01:49:26;;;;;;;9.93;7.97;;;16.20;99.90;;;;;;5050448;28;20235;-82
2023/05/25 01:52:02;;;;;;;9.82;8.80;;;16.10;99.90;;;;;;5050191;28;20218;-88
2023/05/25 01:54:35;;;;;;;10.80;8.70;;;16.00;99.90;;;;;;5051090;28;20276;-84
2023/05/25 01:57:06;;;;;;;10.52;7.50;;;16.00;99.90;;;;;;5050964;28;20738;-68
2023/05/25 01:59:35;;;;;;;10.55;8.05;;;16.00;99.90;;;;;;5050644;28;20238;-70
2023/05/25 02:02:03;;;;;;;8.52;7.63;;;15.90;99.90;;;;;;5055346;28;20651;-84
2023/05/25 02:04:30;;;;;;;9.38;8.30;;;15.90;99.90;;;;;;5054842;28;20268;-88
2023/05/25 02:06:58;;;;;;;13.60;8.65;;;15.80;99.90;;;;;;5054182;28;20241;-77
2023/05/25 02:09:25;;;;;;;9.73;7.35;;;15.80;99.90;;;;;;5054741;28;20234;-79
2023/05/25 02:11:52;;;;;;;10.98;8.90;;;15.80;99.90;;;;;;5053956;28;20235;-81
2023/05/25 02:14:19;;;;;;;10.75;8.68;;;15.70;99.90;;;;;;5043177;28;20235;-76
2023/05/25 02:16:47;;;;;;;13.60;8.45;;;15.70;99.90;;;;;;5051308;28;20253;-82
2023/05/25 02:19:14;;;;;;;9.90;8.18;;;15.60;99.90;;;;;;5054459;28;20209;-85
2023/05/25 02:21:41;;;;;;;8.40;7.47;;;15.60;99.90;;;;;;5053604;28;20624;-69
2023/05/25 02:24:10;;;;;;;13.32;8.10;;;15.60;99.90;;;;;;5054093;28;20235;-82
2023/05/25 02:26:37;;;;;;;10.30;8.07;;;15.60;99.90;;;;;;5053550;28;20278;-82
2023/05/25 02:29:05;;;;;;;11.70;9.35;;;15.50;99.90;;;;;;5054131;28;20678;-82
2023/05/25 02:31:32;;;;;;;11.90;8.95;;;15.50;99.90;;;;;;5054654;28;20213;-85
2023/05/25 02:33:59;;;;;;;8.88;7.97;;;15.50;99.90;;;;;;5053880;28;20242;-86
2023/05/25 02:36:27;;;;;;;12.70;9.18;;;15.50;99.90;;;;;;5053713;28;20299;-82
2023/05/25 02:38:54;;;;;;;8.82;7.93;;;15.50;99.90;;;;;;5053417;28;20321;-82
2023/05/25 02:41:23;;;;;;;10.23;8.55;;;15.40;99.90;;;;;;5054088;28;20242;-83
2023/05/25 02:43:50;;;;;;;12.43;8.85;;;15.40;99.90;;;;;;5053326;28;20302;-87
2023/05/25 02:46:17;;;;;;;9.10;8.23;;;15.40;99.90;;;;;;5053979;28;20235;-80
2023/05/25 02:48:44;;;;;;;13.40;8.70;;;15.40;99.90;;;;;;5053220;28;20239;-88
2023/05/25 02:51:11;;;;;;;10.43;9.20;;;15.30;99.90;;;;;;5053978;28;20249;-86
2023/05/25 02:53:38;;;;;;;11.88;9.05;;;15.30;99.90;;;;;;5053802;28;20269;-82
2023/05/25 02:56:05;;;;;;;9.23;8.35;;;15.30;99.90;;;;;;5054185;28;20239;-84
2023/05/25 02:58:33;;;;;;;12.05;8.40;;;15.20;99.90;;;;;;5055138;28;20264;-89
2023/05/25 03:01:00;;;;;;;10.70;9.27;;;15.30;99.90;;;;;;5054271;28;20234;-88
2023/05/25 03:03:27;;;;;;;9.65;8.27;;;15.20;99.90;;;;;;5053990;28;20245;-90
2023/05/25 03:05:55;;;;;;;9.45;8.50;;;15.20;99.90;;;;;;5053180;28;20262;-86
2023/05/25 03:08:22;;;;;;;12.45;9.73;;;15.20;99.90;;;;;;5055388;28;20214;-92
2023/05/25 03:10:49;;;;;;;10.32;8.70;;;15.20;99.90;;;;;;5054269;28;20241;-76
2023/05/25 03:13:16;;;;;;;10.82;8.88;;;15.20;99.90;;;;;;5053452;28;20215;-82
2023/05/25 03:15:45;;;;;;;12.15;9.07;;;15.10;99.90;;;;;;5053101;28;20230;-82
2023/05/25 03:18:11;;;;;;;11.52;8.73;;;15.10;99.90;;;;;;5052774;28;20249;-87
2023/05/25 03:20:40;;;;;;;11.52;8.27;;;15.10;99.90;;;;;;5053348;28;20239;-84
2023/05/25 03:23:07;;;;;;;8.82;7.88;;;15.00;99.90;;;;;;5053611;28;20217;-88
2023/05/25 03:25:34;;;;;;;9.70;7.93;;;14.90;99.90;;;;;;5052922;28;20317;-75
2023/05/25 03:28:01;;;;;;;12.90;8.65;;;15.00;99.90;;;;;;5053267;28;20312;-73
2023/05/25 03:30:28;;;;;;;9.80;7.03;;;15.00;99.90;;;;;;5052923;28;20238;-82
2023/05/25 03:32:56;;;;;;;11.30;8.48;;;15.00;99.90;;;;;;5052306;28;20211;-82
2023/05/25 03:35:23;;;;;;;10.63;7.55;;;14.90;99.90;;;;;;5053025;28;20246;-87
2023/05/25 03:37:50;;;;;;;10.80;9.38;;;14.90;99.90;;;;;;5052904;28;20203;-84
2023/05/25 03:40:21;;;;;;;14.23;8.98;;;14.90;99.90;;;;;;5052619;28;20253;-78
2023/05/25 03:42:48;;;;;;;10.93;7.93;;;14.90;99.90;;;;;;5052344;28;20235;-83
2023/05/25 03:45:15;;;;;;;11.23;8.00;;;14.80;99.90;;;;;;5052766;28;20238;-88
2023/05/25 03:47:42;;;;;;;7.80;7.03;;;14.80;99.90;;;;;;5052781;28;20289;-90
2023/05/25 03:50:11;;;;;;;10.88;8.73;;;14.80;99.90;;;;;;5052898;28;20249;-87
2023/05/25 03:52:38;;;;;;;10.93;8.77;;;14.80;99.90;;;;;;5051888;28;20674;-71
2023/05/25 03:55:06;;;;;;;11.85;8.65;;;14.90;99.90;;;;;;5052736;28;20361;-90
2023/05/25 03:57:33;;;;;;;9.57;8.38;;;14.80;99.90;;;;;;5052864;28;20207;-82
2023/05/25 04:00:00;;;;;;;13.95;9.13;;;14.80;99.90;;;;;;5051938;28;20250;-82
2023/05/25 04:02:27;;;;;;;11.48;8.82;;;14.80;99.90;;;;;;5051921;28;20326;-87
2023/05/25 04:04:55;;;;;;;12.13;7.97;;;14.80;99.90;;;;;;5051728;28;20250;-86
2023/05/25 04:07:23;;;;;;;12.43;9.43;;;14.70;99.90;;;;;;5052384;28;20238;-83
2023/05/25 04:09:50;;;;;;;12.13;8.13;;;14.70;99.90;;;;;;5038286;28;20199;-85
2023/05/25 04:12:17;;;;;;;9.85;7.85;;;14.70;99.90;;;;;;5052474;28;20238;-86
2023/05/25 04:14:45;;;;;;;10.38;7.50;;;14.60;99.90;;;;;;5037419;28;20239;-80
2023/05/25 04:17:12;;;;;;;11.52;8.77;;;14.60;99.90;;;;;;5051767;28;20265;-82
2023/05/25 04:19:39;;;;;;;12.68;8.57;;;14.50;99.90;;;;;;5051648;28;20211;-85
2023/05/25 04:22:05;;;;;;;11.77;10.25;;;14.60;99.90;;;;;;5051545;28;20227;-84
2023/05/25 04:24:34;;;;;;;11.13;8.02;;;14.60;99.90;;;;;;5051739;28;20290;-82
2023/05/25 04:27:01;;;;;;;10.40;8.27;;;14.60;99.90;;;;;;5051774;28;20227;-83
2023/05/25 04:29:29;;;;;;;10.07;7.90;;;14.60;99.90;;;;;;5052078;28;20211;-77
2023/05/25 04:31:55;;;;;;;9.73;8.02;;;14.60;99.90;;;;;;5050496;28;20243;-78
2023/05/25 04:34:22;;;;;;;12.10;7.78;;;14.60;99.90;;;;;;5051454;28;20241;-77
2023/05/25 04:36:49;;;;;;;13.15;8.00;;;14.60;99.90;;;;;;5050862;28;20250;-82
2023/05/25 04:39:16;;;;;;;12.00;8.18;;;14.60;99.90;;;;;;5051288;28;20256;-81
2023/05/25 04:41:45;;;;;;;8.90;7.85;;;14.60;99.90;;;;;;5050798;28;20238;-85
2023/05/25 04:44:13;;;;;;;9.35;7.45;;;14.60;99.90;;;;;;5051629;28;20235;-86
2023/05/25 04:46:40;;;;;;;10.75;7.43;;;14.50;99.90;;;;;;5051029;28;20661;-82
2023/05/25 04:49:08;;;;;;;9.73;8.70;;;14.50;99.90;;;;;;5051582;28;20238;-84
2023/05/25 04:51:35;;;;;;;12.80;8.40;;;14.60;99.90;;;;;;5051364;28;20207;-86
2023/05/25 04:54:02;;;;;;;10.00;8.10;;;14.60;99.90;;;;;;5051640;28;20591;-88
2023/05/25 04:56:29;;;;;;;10.43;8.13;;;14.60;99.90;;;;;;5051763;28;20245;-88
2023/05/25 04:58:58;;;;;;;10.45;8.00;;;14.50;99.90;;;;;;5051222;28;20218;-87
2023/05/25 05:01:25;;;;;;;10.88;8.60;;;14.50;99.90;;;;;;5051259;28;20215;-85
2023/05/25 05:03:52;;;;;;;13.25;8.48;;;14.60;99.90;;;;;;5050818;28;20622;-90
2023/05/25 05:06:19;;;;;;;9.32;8.23;;;14.70;99.90;;;;;;5051542;28;20266;-86
2023/05/25 05:08:46;;;;;;;11.43;8.32;;;14.60;99.90;;;;;;5052016;28;20202;-71
2023/05/25 05:11:12;;;;;;;12.75;8.95;;;14.70;99.90;;;;;;5051151;28;20241;-87
2023/05/25 05:13:39;;;;;;;14.30;8.20;;;14.70;99.90;;;;;;5044996;28;20310;-86
2023/05/25 05:16:08;;;;;;;10.50;7.72;;;14.70;99.90;;;;;;5043477;28;20241;-83
2023/05/25 05:18:35;;;;;;;12.95;8.90;;;14.70;99.90;;;;;;5050683;28;20269;-85
2023/05/25 05:21:02;;;;;;;13.45;8.60;;;14.80;99.90;;;;;;5051360;28;20214;-86
2023/05/25 05:23:29;;;;;;;9.38;7.78;;;14.90;99.90;;;;;;5046895;28;20632;-79
2023/05/25 05:25:56;;;;;;;12.98;7.03;;;14.90;99.90;;;;;;5050503;28;20720;-82
2023/05/25 05:28:26;;;;;;;10.73;8.60;;;14.90;99.90;;;;;;5051110;28;20687;-86
2023/05/25 05:30:53;;;;;;;13.02;7.53;;;14.90;99.90;;;;;;5050635;28;20792;-88
2023/05/25 05:33:22;;;;;;;10.75;8.07;;;14.90;99.90;;;;;;5050858;28;20242;-72
2023/05/25 05:35:49;;;;;;;9.65;7.82;;;15.00;99.90;;;;;;5050971;28;20260;-84
2023/05/25 05:38:16;;;;;;;11.57;7.85;;;14.90;99.90;;;;;;5051400;28;20706;-88
2023/05/25 05:40:43;;;;;;;9.68;7.45;;;14.90;99.90;;;;;;5050823;28;20265;-75
2023/05/25 05:43:11;;;;;;;8.43;7.63;;;14.90;99.90;;;;;;5046948;28;20261;-78
2023/05/25 05:45:38;;;;;;;9.93;6.97;;;15.10;99.90;;;;;;5050679;28;20662;-83
2023/05/25 05:48:08;;;;;;;14.13;8.20;;;15.20;99.90;;;;;;5050612;28;20266;-86
2023/05/25 05:50:37;;;;;;;12.32;8.40;;;15.10;99.90;;;;;;5051565;28;20285;-87
2023/05/25 05:53:04;;;;;;;9.85;8.15;;;15.10;99.90;;;;;;5050754;28;20210;-82
2023/05/25 05:55:32;;;;;;;13.02;7.95;;;15.20;99.90;;;;;;5051111;28;20209;-89
2023/05/25 05:57:59;;;;;;;11.32;7.82;;;15.20;99.90;;;;;;5050219;28;20214;-72
2023/05/25 06:00:26;;;;;;;8.05;7.25;;;15.20;99.90;;;;;;5050510;28;20737;-80
2023/05/25 06:02:53;;;;;;;10.52;6.95;;;15.30;99.90;;;;;;5050446;28;20317;-84
2023/05/25 06:05:20;;;;;;;10.07;7.40;;;15.30;99.90;;;;;;5046167;28;20281;-87
2023/05/25 06:07:49;;;;;;;11.02;6.65;;;15.40;99.90;;;;;;5050478;28;20605;-72
2023/05/25 06:10:16;;;;;;;11.52;6.22;;;15.40;99.90;;;;;;5050474;28;20210;-84
2023/05/25 06:12:43;;;;;;;9.23;6.53;;;15.50;99.90;;;;;;5050144;28;20234;-84
2023/05/25 06:15:11;;;;;;;13.07;6.88;;;15.60;99.90;;;;;;5048969;28;20234;-83
2023/05/25 06:17:38;;;;;;;9.60;6.85;;;15.50;99.90;;;;;;5050877;28;20292;-78
2023/05/25 06:20:06;;;;;;;10.40;7.15;;;15.60;99.90;;;;;;5050550;28;20252;-83
2023/05/25 06:22:33;;;;;;;8.20;6.47;;;15.60;99.90;;;;;;5050656;28;20207;-84
2023/05/25 06:25:01;;;;;;;9.32;7.50;;;15.60;99.90;;;;;;5050239;28;20609;-77
2023/05/25 06:27:28;;;;;;;9.68;6.38;;;15.70;99.90;;;;;;5049293;28;20650;-75
2023/05/25 06:29:55;;;;;;;8.50;6.13;;;15.80;99.90;;;;;;5048712;28;20211;-90
2023/05/25 06:32:22;;;;;;;10.98;6.70;;;15.90;99.90;;;;;;5050243;28;20285;-87
2023/05/25 06:34:49;;;;;;;8.48;6.45;;;16.00;99.90;;;;;;5050549;28;20250;-83
2023/05/25 06:37:15;;;;;;;8.98;6.20;;;16.00;99.90;;;;;;5051090;28;20238;-89
2023/05/25 06:39:43;;;;;;;7.72;6.70;;;16.00;99.90;;;;;;5051211;28;20246;-90
2023/05/25 06:42:11;;;;;;;10.73;6.20;;;16.10;99.90;;;;;;5049760;28;20211;-75
2023/05/25 06:44:38;;;;;;;8.02;7.00;;;16.20;99.90;;;;;;5049567;28;20211;-90
2023/05/25 06:47:05;;;;;;;10.20;6.95;;;16.30;99.90;;;;;;5052397;28;20223;-69
2023/05/25 06:49:33;;;;;;;7.35;6.65;;;16.30;99.90;;;;;;5054056;28;20230;-80
2023/05/25 06:52:00;;;;;;;8.30;6.63;;;16.30;99.90;;;;;;5053858;28;20238;-88
2023/05/25 06:54:27;;;;;;;11.77;6.78;;;16.30;99.90;;;;;;5053793;28;20705;-85
2023/05/25 06:56:54;;;;;;;9.23;6.95;;;16.40;99.90;;;;;;5053206;28;20211;-88
2023/05/25 06:59:22;;;;;;;7.53;5.82;;;16.60;99.90;;;;;;5053455;28;20666;-88
2023/05/25 07:01:49;;;;;;;9.10;6.20;;;16.80;99.90;;;;;;5053195;28;20251;-89
2023/05/25 07:04:16;;;;;;;13.52;10.15;;;16.90;99.90;;;;;;5052174;28;20455;-78
2023/05/25 07:06:43;;;;;;;9.35;6.07;;;16.90;99.90;;;;;;5049562;28;20319;-79
2023/05/25 07:09:10;;;;;;;10.27;7.40;;;17.00;99.90;;;;;;5048123;28;20649;-84
2023/05/25 07:11:37;;;;;;;7.35;5.13;;;17.00;99.90;;;;;;5052705;28;20199;-85
2023/05/25 07:14:04;;;;;;;7.50;5.93;;;16.90;99.90;;;;;;5044962;28;20675;-82
2023/05/25 07:16:33;;;;;;;10.02;5.72;;;17.00;99.90;;;;;;5053888;28;20206;-87
2023/05/25 07:19:00;;;;;;;6.78;4.43;;;17.00;99.90;;;;;;5053238;28;20214;-76
2023/05/25 07:21:27;;;;;;;13.38;6.35;;;17.00;99.90;;;;;;5053393;28;20214;-78
2023/05/25 07:23:54;;;;;;;7.82;5.38;;;17.20;99.90;;;;;;5038423;28;20242;-77
2023/05/25 07:26:22;;;;;;;8.75;5.88;;;17.30;99.90;;;;;;5052628;28;20695;-83
2023/05/25 07:28:49;;;;;;;6.22;5.63;;;17.50;99.90;;;;;;5051800;28;20217;-80
2023/05/25 07:31:16;;;;;;;10.27;6.03;;;17.80;99.90;;;;;;5052755;28;20265;-80
2023/05/25 07:33:44;;;;;;;8.52;5.40;;;17.80;99.90;;;;;;5051972;28;20253;-81
2023/05/25 07:36:11;;;;;;;8.15;6.53;;;17.50;99.90;;;;;;5052609;28;20253;-80
2023/05/25 07:38:38;;;;;;;8.52;6.10;;;17.60;99.90;;;;;;5051445;28;20267;-83
2023/05/25 07:41:05;;;;;;;7.57;5.70;;;17.50;99.90;;;;;;5053178;28;20243;-82
2023/05/25 07:43:32;;;;;;;8.10;6.65;;;17.60;99.90;;;;;;5053336;28;20238;-82
2023/05/25 07:46:00;;;;;;;7.93;5.43;;;17.70;99.90;;;;;;5052545;28;20238;-81
2023/05/25 07:48:26;;;;;;;7.45;5.40;;;17.80;99.90;;;;;;5052259;28;20632;-81
2023/05/25 07:50:55;;;;;;;12.10;6.15;;;17.80;99.90;;;;;;5051460;28;20242;-71
2023/05/25 07:53:22;;;;;;;10.70;5.93;;;17.90;99.90;;;;;;5052127;28;20239;-81
2023/05/25 07:55:49;;;;;;;6.65;4.78;;;18.00;99.90;;;;;;5051421;28;20250;-78
2023/05/25 07:58:16;;;;;;;7.53;5.68;;;17.90;99.90;;;;;;5052316;28;20210;-80
2023/05/25 08:00:43;;;;;;;11.82;6.28;;;18.10;99.90;;;;;;5045403;28;20226;-74
2023/05/25 08:03:10;;;;;;;7.70;5.07;;;18.40;99.90;;;;;;5051508;28;20214;-76
2023/05/25 08:05:38;;;;;;;7.97;5.43;;;18.30;99.90;;;;;;5051151;28;20203;-82
2023/05/25 08:08:07;;;;;;;7.35;5.53;;;18.10;99.90;;;;;;5050904;28;20242;-74
2023/05/25 08:10:33;;;;;;;7.00;4.90;;;18.20;99.90;;;;;;5051687;28;20203;-74
2023/05/25 08:13:00;;;;;;;5.78;4.63;;;18.40;99.90;;;;;;5049544;28;20245;-76
2023/05/25 08:15:27;;;;;;;7.18;4.25;;;18.50;99.90;;;;;;5051588;28;20203;-74
2023/05/25 08:17:55;;;;;;;7.68;5.00;;;18.60;99.90;;;;;;5049396;28;20242;-75
2023/05/25 08:20:23;;;;;;;7.13;5.05;;;18.70;99.90;;;;;;5047763;28;20286;-71
2023/05/25 08:22:52;;;;;;;8.00;4.43;;;18.90;99.90;;;;;;5045984;28;20212;-71
2023/05/25 08:25:21;;;;;;;5.78;4.50;;;18.90;99.90;;;;;;5051386;28;20221;-74
2023/05/25 08:27:48;;;;;;;6.60;4.55;;;18.90;99.90;;;;;;5049113;28;20227;-72
2023/05/25 08:30:15;;;;;;;9.48;5.60;;;18.70;99.90;;;;;;5049059;28;20206;-73
2023/05/25 08:32:42;;;;;;;9.07;6.25;;;18.90;99.90;;;;;;5049769;28;20234;-73
2023/05/25 08:35:09;;;;;;;7.05;4.35;;;19.20;99.90;;;;;;5049619;28;20241;-73
2023/05/25 08:37:37;;;;;;;5.20;3.80;;;19.50;99.90;;;;;;5049039;28;20214;-72
2023/05/25 08:40:06;;;;;;;5.60;4.10;;;19.50;99.90;;;;;;5050486;28;20206;-73
2023/05/25 08:42:35;;;;;;;4.60;3.47;;;20.00;99.90;;;;;;5050773;28;20199;-67
2023/05/25 08:45:02;;;;;;;6.88;4.60;;;20.00;99.90;;;;;;5051388;28;20678;-75
2023/05/25 08:47:32;;;;;;;6.32;3.80;;;19.90;99.90;;;;;;5050341;28;20230;-70
2023/05/25 08:50:02;;;;;;;8.65;4.00;;;20.10;99.90;;;;;;5049853;28;20217;-75
2023/05/25 08:52:32;;;;;;;9.85;4.93;;;21.00;99.90;;;;;;5048323;28;20234;-76
2023/05/25 08:55:04;;;;;;;8.93;4.55;;;20.90;99.90;;;;;;5051108;28;20211;-75
2023/05/25 08:57:46;;;;;;;7.18;4.13;;;20.70;99.90;;;;;;5051096;28;20222;-75
2023/05/25 09:00:15;;;;;;;7.40;4.07;;;20.60;99.90;;;;;;5050830;28;20684;-73
2023/05/25 09:02:48;;;;;;;8.88;4.05;;;20.70;99.90;;;;;;5047808;28;20245;-76
2023/05/25 09:05:15;;;;;;;5.57;3.72;;;21.10;99.90;;;;;;5049912;28;20246;-74
2023/05/25 09:07:43;;;;;;;5.40;3.75;;;22.00;99.90;;;;;;5049345;28;20261;-74
2023/05/25 09:10:12;;;;;;;7.28;3.25;;;22.60;99.90;;;;;;5049569;28;20242;-74
2023/05/25 09:12:42;;;;;;;5.00;3.50;;;22.30;99.90;;;;;;5049993;28;20245;-77
2023/05/25 09:15:12;;;;;;;9.88;3.70;;;21.60;99.90;;;;;;5036682;28;20202;-75
2023/05/25 09:17:40;;;;;;;5.85;3.35;;;21.20;99.90;;;;;;5050407;28;20749;-75
2023/05/25 09:20:09;;;;;;;4.63;3.55;;;21.20;99.90;;;;;;5050481;28;20280;-76
2023/05/25 09:22:36;;;;;;;4.82;3.70;;;21.00;99.90;;;;;;5050565;28;20210;-75
2023/05/25 09:25:06;;;;;;;4.15;3.50;;;21.00;99.90;;;;;;5050653;28;20235;-75
2023/05/25 09:27:36;;;;;;;21.15;11.90;;;21.40;99.90;;;;;;5050968;28;20273;-68
2023/05/25 09:30:05;;;;;;;8.50;4.90;;;22.60;99.90;;;;;;5050594;28;20685;-75
2023/05/25 09:32:32;;;;;;;9.55;7.07;;;23.10;99.90;;;;;;5042540;28;20206;-71
2023/05/25 09:35:08;;;;;;;9.80;5.45;;;23.40;99.90;;;;;;5047721;28;20234;-75
2023/05/25 09:37:35;;;;;;;6.13;3.85;;;26.20;99.90;;;;;;5049994;28;20214;-76
2023/05/25 09:40:04;;;;;;;7.88;3.90;;;26.70;99.90;;;;;;5049659;28;20202;-74
2023/05/25 09:42:31;;;;;;;5.32;3.72;;;28.30;99.90;;;;;;5046598;28;20681;-75
2023/05/25 09:44:59;;;;;;;3.92;3.15;;;25.40;99.90;;;;;;5050273;28;20211;-75
2023/05/25 09:47:27;;;;;;;5.93;3.13;;;25.20;99.90;;;;;;5050106;28;20234;-75
2023/05/25 09:49:55;;;;;;;3.75;3.10;;;24.40;99.90;;;;;;5049365;28;20238;-74
2023/05/25 09:52:23;;;;;;;7.45;4.22;;;23.80;99.90;;;;;;5049893;28;20244;-75
2023/05/25 09:54:50;;;;;;;4.90;3.20;;;26.50;99.90;;;;;;5049897;28;20202;-76
2023/05/25 09:57:19;;;;;;;4.78;4.18;;;26.10;99.90;;;;;;5049703;28;20734;-75
2023/05/25 09:59:47;;;;;;;4.28;3.72;;;25.50;99.90;;;;;;5049962;28;20263;-74
2023/05/25 10:02:14;;;;;;;8.05;4.22;;;24.40;99.90;;;;;;5049937;28;20206;-75
2023/05/25 10:04:42;;;;;;;3.53;3.22;;;24.00;99.90;;;;;;5044811;28;20230;-72
2023/05/25 10:07:10;;;;;;;5.63;3.33;;;26.50;99.90;;;;;;5047530;28;20230;-75
2023/05/25 10:09:41;;;;;;;4.38;3.65;;;25.30;99.90;;;;;;5048235;28;20684;-76
2023/05/25 10:12:08;;;;;;;6.57;3.70;;;25.60;99.90;;;;;;5049591;28;20206;-75
2023/05/25 10:14:37;;;;;;;5.10;4.22;;;24.80;99.90;;;;;;5045789;28;20234;-73
2023/05/25 10:17:06;;;;;;;3.47;3.15;;;26.00;99.90;;;;;;5044140;28;20282;-76
2023/05/25 10:19:40;;;;;;;5.35;3.30;;;24.40;99.90;;;;;;5044374;28;20217;-72
2023/05/25 10:22:15;;;;;;;6.70;3.25;;;27.60;99.90;;;;;;5052333;28;20297;-77
2023/05/25 10:24:50;;;;;;;5.50;4.25;;;29.80;99.90;;;;;;5053067;28;20264;-72
2023/05/25 10:27:19;;;;;;;7.38;3.90;;;28.00;99.90;;;;;;5053536;28;20244;-74
2023/05/25 10:29:48;;;;;;;5.20;3.50;;;25.70;99.90;;;;;;5053361;28;20203;-74
2023/05/25 10:32:17;;;;;;;3.40;3.08;;;24.20;99.90;;;;;;5053117;28;20213;-74
2023/05/25 10:34:44;;;;;;;5.13;3.20;;;24.10;99.90;;;;;;5052959;28;20227;-71
2023/05/25 10:37:14;;;;;;;4.30;2.75;;;23.30;99.90;;;;;;5053133;28;20203;-73
2023/05/25 10:39:42;;;;;;;3.60;3.13;;;22.70;99.90;;;;;;5052991;28;20336;-68
2023/05/25 10:42:10;;;;;;;3.67;2.97;;;22.60;99.90;;;;;;5053085;28;20207;-70
2023/05/25 10:44:37;;;;;;;5.72;3.20;;;22.60;99.90;;;;;;5042456;28;20682;-74
2023/05/25 10:47:05;;;;;;;4.07;2.88;;;22.60;99.90;;;;;;5053160;28;20207;-74
2023/05/25 10:49:33;;;;;;;3.60;2.42;;;22.40;99.90;;;;;;5052852;28;20276;-74
2023/05/25 10:52:02;;;;;;;3.85;3.05;;;22.10;99.90;;;;;;5052931;28;20210;-74
2023/05/25 10:54:31;;;;;;;4.15;3.25;;;22.10;99.90;;;;;;5053461;28;20260;-74
2023/05/25 10:57:13;;;;;;;4.68;3.22;;;22.60;99.90;;;;;;5052766;28;20213;-75
2023/05/25 10:59:44;;;;;;;6.25;3.45;;;22.60;99.90;;;;;;5052700;28;20678;-75
2023/05/25 11:02:11;;;;;;;5.38;2.90;;;22.80;99.90;;;;;;5053200;28;20215;-69
2023/05/25 11:04:38;;;;;;;5.07;2.92;;;22.90;99.90;;;;;;5052458;28;20230;-76
2023/05/25 11:07:13;;;;;;;4.47;3.25;;;22.90;99.90;;;;;;5052535;28;20241;-76
2023/05/25 11:09:56;;;;;;;3.63;2.60;;;22.60;99.90;;;;;;5047100;28;20234;-72
2023/05/25 11:12:23;;;;;;;5.78;2.83;;;22.30;99.90;;;;;;5045961;28;20221;-74
2023/05/25 11:15:17;;;;;;;5.72;2.42;;;22.50;99.90;;;;;;5044578;28;20233;-75
2023/05/25 11:18:09;;;;;;;4.35;3.28;;;22.40;99.90;;;;;;5040679;28;20217;-74
2023/05/25 11:20:36;;;;;;;5.25;2.95;;;22.80;99.90;;;;;;5032501;28;20238;-70
2023/05/25 11:23:24;;;;;;;4.72;3.30;;;22.20;99.90;;;;;;5052660;28;20202;-74
2023/05/25 11:25:53;;;;;;;4.10;3.05;;;22.40;99.90;;;;;;5051176;28;20214;-74
2023/05/25 11:28:22;;;;;;;6.35;3.67;;;22.40;99.90;;;;;;5052386;28;20262;-78
2023/05/25 11:30:49;;;;;;;5.82;3.65;;;22.80;99.90;;;;;;5051962;28;20235;-77
2023/05/25 11:33:21;;;;;;;2.88;2.40;;;23.20;99.90;;;;;;5051962;28;20687;-77
2023/05/25 11:35:50;;;;;;;4.93;2.92;;;23.10;99.90;;;;;;5051963;28;20207;-76
2023/05/25 11:38:16;;;;;;;6.22;2.80;;;22.90;99.90;;;;;;5052328;28;20249;-75
2023/05/25 11:40:43;;;;;;;2.67;2.47;;;23.50;99.90;;;;;;5051922;28;20272;-77
2023/05/25 11:43:13;;;;;;;6.20;2.38;;;23.10;99.90;;;;;;5052677;28;20209;-77
2023/05/25 11:45:40;;;;;;;3.75;3.45;;;22.40;99.90;;;;;;5051438;28;20238;-75
2023/05/25 11:48:12;;;;;;;4.75;3.03;;;22.40;99.90;;;;;;5046267;28;20233;-80
2023/05/25 11:50:39;;;;;;;5.35;3.40;;;22.20;99.90;;;;;;5040467;28;20659;-77
2023/05/25 11:53:06;;;;;;;9.00;7.55;;;22.10;99.90;;;;;;5051860;28;20732;-72
2023/05/25 11:55:33;;;;;;;4.78;4.05;;;22.00;99.90;;;;;;5046579;28;20207;-75
2023/05/25 11:58:00;;;;;;;4.93;2.97;;;22.50;99.90;;;;;;5051888;28;20238;-74
2023/05/25 12:00:30;;;;;;;4.70;3.47;;;22.80;99.90;;;;;;5051684;28;20706;-75
2023/05/25 12:02:57;;;;;;;3.38;3.08;;;22.20;99.90;;;;;;5051140;28;20314;-79
2023/05/25 12:05:24;;;;;;;4.25;3.85;;;21.80;99.90;;;;;;5050912;28;20242;-76
2023/05/25 12:07:51;;;;;;;4.75;3.55;;;21.60;99.90;;;;;;5051145;28;20213;-73
2023/05/25 12:10:18;;;;;;;11.48;5.18;;;21.60;99.90;;;;;;5046593;28;20678;-74
2023/05/25 12:12:46;;;;;;;6.45;3.13;;;21.60;99.90;;;;;;5051053;28;20242;-75
2023/05/25 12:15:15;;;;;;;5.85;4.07;;;22.20;99.90;;;;;;5037391;28;20245;-73
2023/05/25 12:17:44;;;;;;;5.53;2.97;;;22.40;99.90;;;;;;5050958;28;20658;-72
2023/05/25 12:20:13;;;;;;;6.53;3.20;;;22.50;99.90;;;;;;5051134;28;20238;-73
2023/05/25 12:22:41;;;;;;;5.10;3.70;;;22.30;99.90;;;;;;5050984;28;20211;-74
2023/05/25 12:25:10;;;;;;;5.20;3.35;;;21.50;99.90;;;;;;5050377;28;20295;-73
2023/05/25 12:27:37;;;;;;;3.88;2.92;;;22.20;99.90;;;;;;5050978;28;20202;-74
2023/05/25 12:30:05;;;;;;;5.78;3.75;;;22.60;99.90;;;;;;5045693;28;20280;-73
2023/05/25 12:32:32;;;;;;;7.10;3.47;;;23.00;99.90;;;;;;5051415;28;20238;-73
2023/05/25 12:35:05;;;;;;;6.28;3.40;;;23.40;99.90;;;;;;5051405;28;20247;-71
2023/05/25 12:37:33;;;;;;;4.88;3.20;;;23.00;99.90;;;;;;5037933;28;20670;-71
2023/05/25 12:40:00;;;;;;;7.35;3.42;;;23.10;99.90;;;;;;5051159;28;20238;-74
2023/05/25 12:42:29;;;;;;;5.70;3.70;;;22.60;99.90;;;;;;5050269;28;20679;-72
2023/05/25 12:44:59;;;;;;;4.95;4.00;;;22.30;99.90;;;;;;5049367;28;20674;-72
2023/05/25 12:47:29;;;;;;;5.15;3.47;;;22.70;99.90;;;;;;5050927;28;20198;-72